GENERAL EDWARD LAWRENCE LOGAN INTL

KBOS (BOS)
Boston, Massachusetts
Towered

Vatsim Metar:
KBOS 240954Z 31009KT 10SM CLR 07/01 A3007 RMK AO2 SLP182 T00670006

No ATC Online

Traffic

Inbound:
Ident
Type
Name
ETA
Phase
VHDRS
C25C
Daniel YPJT
18:19 Z
Descent
BAW1125
A320
Mauro Gerber LSZH
14:54 Z
Descent
BAW213
B772
Dan EGLL
15:01 Z
Cruse
BAW13G
B744
Iain Sealey EGKK
14:59 Z
Cruse
EIN137
A321
Chris Wilkinson EGCC
Unknown
VIR11B
A35K
Adrian
14:55 Z
Cruse
BAW753
B78X
James Griffin EGLL
16:55 Z
Descent
BA213
B773
Mustafa Hajjar EGTB
Unknown

Outbound:
Ident
Type
Name
Destination
Phase
BAW479
B748
Miroslaw Majerczuk EGTK
EGPH
Boarding